Atlas — SV6729 — position and weather

sailwx.info

Track history (hours):
 
Tides and Currents Weather Stations Pressure Air Temp Water Temp Dewpoint Dewpoint Depression Visibility Wind Speed Wind Dir Waves Ship Positions

Atlas

Last reported at 2015-Jan-30 04:30 UTC. Time now 2015-Jan-30 04:52 UTC.
Position N 37°57' E 023°37'.

Length 29 m; draft 5 m.

Type: Tug. MMSI: 239611000.

Date/timePositionNaut miles runAvg speedWind from/ knotsBaromVisibWave heightAir tempDewpointWater temp
2015-Jan-30 04:30N 37°57' E 023°37'0 0.0
2015-Jan-29 17:31N 37°57' E 023°37'2 2.5
2015-Jan-29 16:32N 37°57' E 023°33'2 2.5
2015-Jan-29 15:32N 37°57' E 023°37'0 0.0
2015-Jan-29 14:31N 37°57' E 023°37'0 0.0
2015-Jan-29 13:33N 37°57' E 023°37'1 0.9
2015-Jan-29 12:32N 37°57' E 023°35'1 0.6
2015-Jan-29 11:32N 37°57' E 023°36'0 0.3
2015-Jan-29 10:31N 37°57' E 023°36'0 0.2
2015-Jan-29 09:33N 37°57' E 023°36'0 0.5
2015-Jan-29 08:33N 37°57' E 023°37'0 0.0
2015-Jan-29 07:21N 37°57' E 023°37'0 0.0
2015-Jan-29 06:31N 37°57' E 023°37'1 0.8
2015-Jan-29 05:33N 37°57' E 023°36'1 0.8
2015-Jan-29 04:33N 37°57' E 023°37'0 0.0
2015-Jan-28 11:26N 37°57' E 023°37'0 0.0
2015-Jan-28 10:31N 37°57' E 023°37'0 0.0
2015-Jan-28 09:26N 37°57' E 023°37'0 0.0
2015-Jan-28 08:30N 37°57' E 023°37'3 2.4
2015-Jan-28 07:27N 37°57' E 023°33'2 1.7
2015-Jan-28 06:32N 37°57' E 023°35'0 0.4
2015-Jan-28 05:31N 37°57' E 023°35'1 1.2
2015-Jan-28 04:31N 37°57' E 023°37'0 0.0
2015-Jan-27 11:17N 37°57' E 023°37'0 0.0
2015-Jan-27 10:32N 37°57' E 023°37'0 0.0
2015-Jan-27 09:31N 37°57' E 023°37'4 4.0
2015-Jan-27 08:33N 37°60' E 023°33'3 3.0
2015-Jan-27 07:31N 38°02' E 023°30'0 0.2
2015-Jan-27 06:30N 38°02' E 023°30'4 4.0
2015-Jan-27 05:23N 38°01' E 023°36'0 0.0
2015-Jan-27 04:31N 38°01' E 023°36'0 0.0
2015-Jan-27 03:26N 38°01' E 023°36'0 0.0
2015-Jan-27 02:30N 38°01' E 023°36'0 0.0
2015-Jan-27 01:20N 38°01' E 023°36'0 0.0
2015-Jan-27 00:26N 38°01' E 023°36'0 0.0
2015-Jan-26 23:32N 38°01' E 023°36'0 0.0
2015-Jan-26 22:30N 38°01' E 023°36'0 0.0
2015-Jan-26 21:32N 38°01' E 023°36'0 0.0
2015-Jan-26 20:32N 38°01' E 023°36'0 0.0
2015-Jan-26 19:23N 38°01' E 023°36'0 0.0
2015-Jan-26 18:27N 38°01' E 023°36'0 0.0
2015-Jan-26 17:27N 38°01' E 023°36'0 0.0
2015-Jan-26 16:30N 38°01' E 023°36'0 0.0
2015-Jan-26 15:30N 38°01' E 023°36'0 0.0
2015-Jan-26 14:32N 38°01' E 023°36'0 0.0
2015-Jan-26 13:27N 38°01' E 023°36'0 0.0
2015-Jan-26 12:31N 38°01' E 023°36'0 0.0
2015-Jan-26 11:33N 38°01' E 023°36'0 0.0
2015-Jan-26 10:13N 38°01' E 023°36'0 0.0
2015-Jan-26 09:32N 38°01' E 023°36'0 0.0
2015-Jan-26 08:29N 38°01' E 023°36'0 0.0
2015-Jan-26 07:23N 38°01' E 023°36'0 0.0
2015-Jan-26 06:31N 38°01' E 023°36'0 0.0
2015-Jan-26 05:27N 38°01' E 023°36'0 0.0
2015-Jan-26 04:29N 38°01' E 023°36'0 0.0
2015-Jan-26 03:21N 38°01' E 023°36'0 0.0
2015-Jan-26 02:32N 38°01' E 023°36'0 0.0
2015-Jan-26 01:31N 38°01' E 023°36'0 0.0
2015-Jan-26 00:31N 38°01' E 023°36'0 0.0
2015-Jan-25 23:25N 38°01' E 023°36'0 0.0
2015-Jan-25 22:32N 38°01' E 023°36'0 0.0
2015-Jan-25 21:29N 38°01' E 023°36'0 0.0
2015-Jan-25 20:29N 38°01' E 023°36'0 0.0
2015-Jan-25 19:23N 38°01' E 023°36'0 0.0
2015-Jan-25 18:08N 38°01' E 023°36'0 0.0
2015-Jan-25 17:31N 38°01' E 023°36'0 0.0
2015-Jan-25 16:26N 38°01' E 023°36'4 0.4
2015-Jan-25 06:30N 37°57' E 023°36'0 0.2
2015-Jan-25 05:33N 37°57' E 023°36'1 0.0
2015-Jan-23 19:33N 37°57' E 023°37'0 0.0
2015-Jan-23 18:33N 37°57' E 023°37'0 0.0
2015-Jan-23 17:31N 37°57' E 023°37'1 0.7
2015-Jan-23 16:33N 37°57' E 023°36'1 0.6
2015-Jan-23 15:33N 37°57' E 023°37'0 0.0
2015-Jan-23 14:29N 37°57' E 023°37'0 0.0
2015-Jan-23 13:33N 37°57' E 023°37'0 0.0
2015-Jan-23 12:33N 37°57' E 023°37'0 0.0
2015-Jan-22 19:31N 37°57' E 023°37'0 0.1
2015-Jan-22 18:33N 37°57' E 023°37'0 0.1
2015-Jan-22 17:31N 37°57' E 023°37'0 0.4
2015-Jan-22 16:34N 37°58' E 023°36'0 0.3
2015-Jan-22 15:30N 37°57' E 023°36'0 0.3
2015-Jan-22 14:32N 37°57' E 023°36'1 0.8
2015-Jan-22 13:28N 37°57' E 023°37'0 0.0
2015-Jan-22 12:31N 37°57' E 023°37'0 0.0
2015-Jan-21 19:34N 37°57' E 023°37'1 0.9
2015-Jan-21 18:33N 37°57' E 023°36'0 0.4
2015-Jan-21 17:33N 37°57' E 023°36'1 0.7
2015-Jan-21 16:32N 37°57' E 023°37'0 0.0
2015-Jan-21 15:33N 37°57' E 023°37'0 0.0
2015-Jan-21 14:31N 37°57' E 023°37'0 0.0
2015-Jan-21 13:30N 37°57' E 023°37'1 0.6
2015-Jan-21 12:27N 37°57' E 023°36'0 0.0
2015-Jan-20 21:32N 37°57' E 023°35'0 0.0
2015-Jan-20 20:33N 37°57' E 023°35'1 1.0
2015-Jan-20 19:33N 37°57' E 023°37'1 0.5
2015-Jan-20 18:27N 37°57' E 023°36'1 0.7
2015-Jan-20 17:32N 37°57' E 023°37'0 0.0
2015-Jan-20 16:33N 37°57' E 023°37'0 0.0
2015-Jan-20 15:29N 37°57' E 023°37'0 0.0
2015-Jan-20 14:26N 37°57' E 023°37'0 0.5
2015-Jan-20 13:33N 37°57' E 023°36'1 0.8
2015-Jan-20 12:33N 37°57' E 023°35'  
Track history (hours):
 
Tides and Currents Weather Stations Pressure Air Temp Water Temp Dewpoint Dewpoint Depression Visibility Wind Speed Wind Dir Waves Ship Positions

Atlas

Last reported at 2015-Jan-30 04:30 UTC. Time now 2015-Jan-30 04:52 UTC.
Position N 37°57' E 023°37'.

Length 29 m; draft 5 m.

Type: Tug. MMSI: 239611000.

Date/timePositionNaut miles runAvg speedWind from/ knotsBaromVisibWave heightAir tempDewpointWater temp
2015-Jan-30 04:30N 37°57' E 023°37'0 0.0
2015-Jan-29 17:31N 37°57' E 023°37'2 2.5
2015-Jan-29 16:32N 37°57' E 023°33'2 2.5
2015-Jan-29 15:32N 37°57' E 023°37'0 0.0
2015-Jan-29 14:31N 37°57' E 023°37'0 0.0
2015-Jan-29 13:33N 37°57' E 023°37'1 0.9
2015-Jan-29 12:32N 37°57' E 023°35'1 0.6
2015-Jan-29 11:32N 37°57' E 023°36'0 0.3
2015-Jan-29 10:31N 37°57' E 023°36'0 0.2
2015-Jan-29 09:33N 37°57' E 023°36'0 0.5
2015-Jan-29 08:33N 37°57' E 023°37'0 0.0
2015-Jan-29 07:21N 37°57' E 023°37'0 0.0
2015-Jan-29 06:31N 37°57' E 023°37'1 0.8
2015-Jan-29 05:33N 37°57' E 023°36'1 0.8
2015-Jan-29 04:33N 37°57' E 023°37'0 0.0
2015-Jan-28 11:26N 37°57' E 023°37'0 0.0
2015-Jan-28 10:31N 37°57' E 023°37'0 0.0
2015-Jan-28 09:26N 37°57' E 023°37'0 0.0
2015-Jan-28 08:30N 37°57' E 023°37'3 2.4
2015-Jan-28 07:27N 37°57' E 023°33'2 1.7
2015-Jan-28 06:32N 37°57' E 023°35'0 0.4
2015-Jan-28 05:31N 37°57' E 023°35'1 1.2
2015-Jan-28 04:31N 37°57' E 023°37'0 0.0
2015-Jan-27 11:17N 37°57' E 023°37'0 0.0
2015-Jan-27 10:32N 37°57' E 023°37'0 0.0
2015-Jan-27 09:31N 37°57' E 023°37'4 4.0
2015-Jan-27 08:33N 37°60' E 023°33'3 3.0
2015-Jan-27 07:31N 38°02' E 023°30'0 0.2
2015-Jan-27 06:30N 38°02' E 023°30'4 4.0
2015-Jan-27 05:23N 38°01' E 023°36'0 0.0
2015-Jan-27 04:31N 38°01' E 023°36'0 0.0
2015-Jan-27 03:26N 38°01' E 023°36'0 0.0
2015-Jan-27 02:30N 38°01' E 023°36'0 0.0
2015-Jan-27 01:20N 38°01' E 023°36'0 0.0
2015-Jan-27 00:26N 38°01' E 023°36'0 0.0
2015-Jan-26 23:32N 38°01' E 023°36'0 0.0
2015-Jan-26 22:30N 38°01' E 023°36'0 0.0
2015-Jan-26 21:32N 38°01' E 023°36'0 0.0
2015-Jan-26 20:32N 38°01' E 023°36'0 0.0
2015-Jan-26 19:23N 38°01' E 023°36'0 0.0
2015-Jan-26 18:27N 38°01' E 023°36'0 0.0
2015-Jan-26 17:27N 38°01' E 023°36'0 0.0
2015-Jan-26 16:30N 38°01' E 023°36'0 0.0
2015-Jan-26 15:30N 38°01' E 023°36'0 0.0
2015-Jan-26 14:32N 38°01' E 023°36'0 0.0
2015-Jan-26 13:27N 38°01' E 023°36'0 0.0
2015-Jan-26 12:31N 38°01' E 023°36'0 0.0
2015-Jan-26 11:33N 38°01' E 023°36'0 0.0
2015-Jan-26 10:13N 38°01' E 023°36'0 0.0
2015-Jan-26 09:32N 38°01' E 023°36'0 0.0
2015-Jan-26 08:29N 38°01' E 023°36'0 0.0
2015-Jan-26 07:23N 38°01' E 023°36'0 0.0
2015-Jan-26 06:31N 38°01' E 023°36'0 0.0
2015-Jan-26 05:27N 38°01' E 023°36'0 0.0
2015-Jan-26 04:29N 38°01' E 023°36'0 0.0
2015-Jan-26 03:21N 38°01' E 023°36'0 0.0
2015-Jan-26 02:32N 38°01' E 023°36'0 0.0
2015-Jan-26 01:31N 38°01' E 023°36'0 0.0
2015-Jan-26 00:31N 38°01' E 023°36'0 0.0
2015-Jan-25 23:25N 38°01' E 023°36'0 0.0
2015-Jan-25 22:32N 38°01' E 023°36'0 0.0
2015-Jan-25 21:29N 38°01' E 023°36'0 0.0
2015-Jan-25 20:29N 38°01' E 023°36'0 0.0
2015-Jan-25 19:23N 38°01' E 023°36'0 0.0
2015-Jan-25 18:08N 38°01' E 023°36'0 0.0
2015-Jan-25 17:31N 38°01' E 023°36'0 0.0
2015-Jan-25 16:26N 38°01' E 023°36'4 0.4
2015-Jan-25 06:30N 37°57' E 023°36'0 0.2
2015-Jan-25 05:33N 37°57' E 023°36'1 0.0
2015-Jan-23 19:33N 37°57' E 023°37'0 0.0
2015-Jan-23 18:33N 37°57' E 023°37'0 0.0
2015-Jan-23 17:31N 37°57' E 023°37'1 0.7
2015-Jan-23 16:33N 37°57' E 023°36'1 0.6
2015-Jan-23 15:33N 37°57' E 023°37'0 0.0
2015-Jan-23 14:29N 37°57' E 023°37'0 0.0
2015-Jan-23 13:33N 37°57' E 023°37'0 0.0
2015-Jan-23 12:33N 37°57' E 023°37'0 0.0
2015-Jan-22 19:31N 37°57' E 023°37'0 0.1
2015-Jan-22 18:33N 37°57' E 023°37'0 0.1
2015-Jan-22 17:31N 37°57' E 023°37'0 0.4
2015-Jan-22 16:34N 37°58' E 023°36'0 0.3
2015-Jan-22 15:30N 37°57' E 023°36'0 0.3
2015-Jan-22 14:32N 37°57' E 023°36'1 0.8
2015-Jan-22 13:28N 37°57' E 023°37'0 0.0
2015-Jan-22 12:31N 37°57' E 023°37'0 0.0
2015-Jan-21 19:34N 37°57' E 023°37'1 0.9
2015-Jan-21 18:33N 37°57' E 023°36'0 0.4
2015-Jan-21 17:33N 37°57' E 023°36'1 0.7
2015-Jan-21 16:32N 37°57' E 023°37'0 0.0
2015-Jan-21 15:33N 37°57' E 023°37'0 0.0
2015-Jan-21 14:31N 37°57' E 023°37'0 0.0
2015-Jan-21 13:30N 37°57' E 023°37'1 0.6
2015-Jan-21 12:27N 37°57' E 023°36'0 0.0
2015-Jan-20 21:32N 37°57' E 023°35'0 0.0
2015-Jan-20 20:33N 37°57' E 023°35'1 1.0
2015-Jan-20 19:33N 37°57' E 023°37'1 0.5
2015-Jan-20 18:27N 37°57' E 023°36'1 0.7
2015-Jan-20 17:32N 37°57' E 023°37'0 0.0
2015-Jan-20 16:33N 37°57' E 023°37'0 0.0
2015-Jan-20 15:29N 37°57' E 023°37'0 0.0
2015-Jan-20 14:26N 37°57' E 023°37'0 0.5
2015-Jan-20 13:33N 37°57' E 023°36'1 0.8
2015-Jan-20 12:33N 37°57' E 023°35'  

Dump ship's entire track history